createdAt,value
2022-08-27T00:01:30.899Z,58.30
2022-08-27T00:04:03.140Z,58.30
2022-08-27T00:06:34.086Z,58.36
2022-08-27T00:09:06.026Z,58.43
2022-08-27T00:11:50.380Z,58.38
2022-08-27T00:14:43.241Z,58.45
2022-08-27T00:17:17.644Z,58.35
2022-08-27T00:19:50.948Z,58.50
2022-08-27T00:22:21.749Z,58.28
2022-08-27T00:24:53.857Z,58.45
2022-08-27T00:27:30.520Z,58.58
2022-08-27T00:30:03.778Z,58.61
2022-08-27T00:32:35.707Z,58.67
2022-08-27T00:35:17.652Z,58.76
2022-08-27T00:37:48.573Z,58.94
2022-08-27T00:40:22.511Z,58.98
2022-08-27T00:42:53.464Z,58.95
2022-08-27T00:45:48.430Z,58.91
2022-08-27T00:48:27.330Z,59.11
2022-08-27T00:51:07.344Z,59.04
2022-08-27T00:53:40.882Z,59.26
2022-08-27T00:56:17.676Z,58.94
2022-08-27T00:58:53.474Z,59.24
2022-08-27T01:01:31.003Z,59.20
2022-08-27T01:04:09.696Z,59.22
2022-08-27T01:06:45.654Z,59.32
2022-08-27T01:09:19.167Z,59.38
2022-08-27T01:11:54.085Z,59.35
2022-08-27T01:14:27.686Z,59.54
2022-08-27T01:17:03.025Z,59.52
2022-08-27T01:19:40.912Z,59.52
2022-08-27T01:22:36.376Z,59.34
2022-08-27T01:25:17.805Z,59.33
2022-08-27T01:27:50.096Z,59.28
2022-08-27T01:30:23.924Z,59.40
2022-08-27T01:32:56.617Z,59.31
2022-08-27T01:35:27.563Z,59.29
2022-08-27T01:37:58.208Z,59.41
2022-08-27T01:40:31.337Z,59.49
2022-08-27T01:43:03.332Z,59.40
2022-08-27T01:45:37.608Z,59.44
2022-08-27T01:48:09.913Z,59.39
2022-08-27T01:50:43.022Z,59.52
2022-08-27T01:53:50.283Z,59.53
2022-08-27T01:56:36.817Z,59.66
2022-08-27T01:59:39.112Z,59.69
2022-08-27T02:02:33.125Z,59.82
2022-08-27T02:05:08.623Z,59.79
2022-08-27T02:07:40.640Z,59.78
2022-08-27T02:10:20.394Z,59.56
2022-08-27T02:12:51.778Z,59.62
2022-08-27T02:15:24.954Z,59.70
2022-08-27T02:17:56.785Z,59.83
2022-08-27T02:20:29.533Z,59.81
2022-08-27T02:23:35.946Z,59.86
2022-08-27T02:26:08.006Z,59.96
2022-08-27T02:28:39.346Z,59.97
2022-08-27T02:31:12.751Z,60.01
2022-08-27T02:33:44.836Z,59.98
2022-08-27T02:36:20.025Z,59.92
2022-08-27T02:38:51.656Z,59.98
2022-08-27T02:41:31.878Z,60.14
2022-08-27T02:44:23.917Z,60.18
2022-08-27T02:47:04.488Z,60.20
2022-08-27T02:49:37.667Z,60.21
2022-08-27T02:52:12.296Z,60.26
2022-08-27T02:54:54.916Z,60.17
2022-08-27T02:57:27.964Z,60.33
2022-08-27T02:59:59.436Z,60.28
2022-08-27T03:02:30.650Z,60.25
2022-08-27T03:05:01.567Z,60.44
2022-08-27T03:07:32.444Z,60.47
2022-08-27T03:10:07.712Z,60.47
2022-08-27T03:12:42.437Z,60.43
2022-08-27T03:15:21.412Z,60.39
2022-08-27T03:18:06.385Z,60.54
2022-08-27T03:20:43.957Z,60.48
2022-08-27T03:23:16.426Z,60.60
2022-08-27T03:25:55.096Z,60.62
2022-08-27T03:28:28.491Z,60.62
2022-08-27T03:31:02.289Z,60.64
2022-08-27T03:33:54.176Z,60.62
2022-08-27T03:36:26.271Z,60.68
2022-08-27T03:38:57.697Z,60.80
2022-08-27T03:41:54.569Z,60.94
2022-08-27T03:44:31.877Z,60.93
2022-08-27T03:47:03.427Z,60.99
2022-08-27T03:49:38.477Z,61.01
2022-08-27T03:52:11.153Z,61.01
2022-08-27T03:54:42.807Z,61.07
2022-08-27T03:57:14.600Z,61.02
2022-08-27T03:59:45.626Z,61.05
2022-08-27T04:02:16.868Z,61.06
2022-08-27T04:04:47.904Z,61.24
2022-08-27T04:07:18.628Z,61.20
2022-08-27T04:09:49.740Z,61.41
2022-08-27T04:12:21.607Z,61.31
2022-08-27T04:14:53.639Z,61.33
2022-08-27T04:17:25.371Z,61.38
2022-08-27T04:19:56.271Z,61.30
2022-08-27T04:22:26.934Z,61.37
2022-08-27T04:25:38.186Z,61.41
2022-08-27T04:28:14.512Z,61.43
2022-08-27T04:31:13.909Z,61.47
2022-08-27T04:33:58.154Z,61.47
2022-08-27T04:37:07.911Z,61.46
2022-08-27T04:40:05.852Z,61.77
2022-08-27T04:42:57.312Z,61.69
2022-08-27T04:45:44.866Z,61.55
2022-08-27T04:48:24.529Z,61.73
2022-08-27T04:51:18.677Z,61.82
2022-08-27T04:55:28.235Z,61.87
2022-08-27T04:58:00.645Z,62.02
2022-08-27T05:00:31.299Z,62.09
2022-08-27T05:03:02.657Z,62.11
2022-08-27T05:05:34.288Z,61.98
2022-08-27T05:08:07.626Z,62.06
2022-08-27T05:10:49.568Z,62.22
2022-08-27T05:13:23.386Z,62.39
2022-08-27T05:16:06.775Z,62.24
2022-08-27T05:18:44.277Z,62.46
2022-08-27T05:21:28.034Z,62.32
2022-08-27T05:23:59.529Z,62.40
2022-08-27T05:26:31.613Z,62.59
2022-08-27T05:29:02.847Z,62.44
2022-08-27T05:31:33.863Z,62.63
2022-08-27T05:34:10.231Z,62.60
2022-08-27T05:36:47.930Z,62.67
2022-08-27T05:39:20.034Z,62.75
2022-08-27T05:41:52.815Z,62.94
2022-08-27T05:45:05.487Z,63.06
2022-08-27T05:48:01.717Z,62.97
2022-08-27T05:51:08.727Z,63.10
2022-08-27T05:53:42.568Z,62.97
2022-08-27T05:57:10.069Z,63.08
2022-08-27T06:00:14.869Z,63.25
2022-08-27T06:02:47.285Z,63.39
2022-08-27T06:05:17.998Z,63.45
2022-08-27T06:07:48.649Z,63.42
2022-08-27T06:10:19.740Z,63.39
2022-08-27T06:12:53.748Z,63.40
2022-08-27T06:15:32.237Z,63.53
2022-08-27T06:18:05.774Z,63.61
2022-08-27T06:20:36.974Z,63.76
2022-08-27T06:23:08.235Z,63.86
2022-08-27T06:25:44.306Z,63.96
2022-08-27T06:28:41.896Z,64.04
2022-08-27T06:32:03.821Z,64.09
2022-08-27T06:34:35.644Z,64.18
2022-08-27T06:37:13.837Z,64.17
2022-08-27T06:39:55.511Z,64.06
2022-08-27T06:46:06.784Z,64.45
2022-08-27T06:48:54.642Z,64.30
2022-08-27T06:51:52.881Z,64.34
2022-08-27T06:54:56.689Z,64.35
2022-08-27T06:57:40.732Z,64.47
2022-08-27T07:00:19.991Z,64.61
2022-08-27T07:03:10.250Z,64.67
2022-08-27T07:05:44.884Z,64.65
2022-08-27T07:08:28.776Z,64.66
2022-08-27T07:11:13.486Z,64.67
2022-08-27T07:13:53.335Z,64.71
2022-08-27T07:16:27.103Z,64.66
2022-08-27T07:19:08.703Z,64.78
2022-08-27T07:21:41.758Z,64.75
2022-08-27T07:24:15.613Z,64.86
2022-08-27T07:26:47.326Z,64.79
2022-08-27T07:29:18.544Z,64.88
2022-08-27T07:31:49.386Z,64.84
2022-08-27T07:38:15.381Z,64.85
2022-08-27T07:40:45.944Z,64.97
2022-08-27T07:43:33.451Z,64.97
2022-08-27T07:46:04.830Z,64.96
2022-08-27T07:53:09.039Z,64.93
2022-08-27T07:59:13.158Z,64.86
2022-08-27T08:01:44.377Z,64.84
2022-08-27T08:04:19.512Z,64.83
2022-08-27T08:06:51.955Z,64.53
2022-08-27T08:09:24.312Z,64.72
2022-08-27T08:11:55.671Z,64.70
2022-08-27T08:14:26.648Z,64.63
2022-08-27T08:17:10.059Z,64.50
2022-08-27T08:19:50.192Z,64.22
2022-08-27T08:23:34.787Z,64.14
2022-08-27T08:26:31.732Z,64.20
2022-08-27T08:45:43.658Z,63.67
2022-08-27T08:48:58.747Z,63.86
2022-08-27T08:59:24.619Z,63.15
2022-08-27T09:02:16.156Z,63.29
2022-08-27T09:04:58.345Z,63.08
2022-08-27T09:07:46.108Z,62.09
2022-08-27T09:10:58.284Z,62.40
2022-08-27T09:16:41.302Z,61.33
2022-08-27T09:23:47.812Z,62.13
2022-08-27T09:27:05.930Z,61.16
2022-08-27T09:30:40.341Z,60.95
2022-08-27T09:43:14.904Z,60.25
2022-08-27T09:46:18.726Z,59.47
2022-08-27T09:50:43.606Z,59.43
2022-08-27T09:53:48.557Z,58.99
2022-08-27T09:57:51.118Z,58.47
2022-08-27T10:00:47.965Z,58.05
2022-08-27T10:08:03.678Z,56.94
2022-08-27T10:16:36.894Z,56.13
2022-08-27T10:20:30.478Z,55.80
2022-08-27T10:28:34.885Z,54.86
2022-08-27T10:31:31.638Z,54.94
2022-08-27T10:34:19.147Z,54.86
2022-08-27T10:37:36.628Z,54.65
2022-08-27T10:40:27.864Z,53.94
2022-08-27T10:43:30.501Z,53.92
2022-08-27T10:47:31.753Z,53.83
2022-08-27T10:50:20.114Z,53.39
2022-08-27T10:53:18.658Z,53.08
2022-08-27T10:55:59.587Z,52.56
2022-08-27T10:58:51.456Z,52.44
2022-08-27T11:01:40.318Z,52.45
2022-08-27T11:04:35.113Z,52.23
2022-08-27T11:12:13.332Z,52.19
2022-08-27T11:19:20.676Z,50.55
2022-08-27T11:22:26.149Z,50.58
2022-08-27T11:25:53.995Z,50.04
2022-08-27T11:28:38.278Z,49.69
2022-08-27T11:31:38.705Z,49.61
2022-08-27T11:34:45.646Z,49.59
2022-08-27T11:37:58.186Z,48.94
2022-08-27T11:41:00.745Z,48.48
2022-08-27T11:43:37.666Z,48.80
2022-08-27T11:46:13.949Z,48.02
2022-08-27T11:49:10.746Z,47.90
2022-08-27T11:51:43.795Z,47.64
2022-08-27T11:58:22.577Z,46.92
2022-08-27T12:00:54.749Z,46.67
2022-08-27T12:07:14.636Z,46.79
2022-08-27T12:10:11.901Z,46.33
2022-08-27T12:13:03.139Z,46.05
2022-08-27T12:15:36.503Z,46.08
2022-08-27T12:19:19.578Z,45.90
2022-08-27T12:22:56.083Z,45.22
2022-08-27T12:26:19.731Z,45.46
2022-08-27T12:29:47.775Z,45.31
2022-08-27T12:32:44.867Z,45.55
2022-08-27T12:35:40.646Z,45.14
2022-08-27T12:38:56.759Z,44.68
2022-08-27T12:42:13.668Z,44.28
2022-08-27T12:45:28.764Z,44.55
2022-08-27T12:48:48.770Z,44.17
2022-08-27T12:52:08.507Z,43.58
2022-08-27T12:55:26.723Z,43.23
2022-08-27T12:59:01.626Z,43.49
2022-08-27T13:02:31.566Z,43.51
2022-08-27T13:06:53.687Z,43.51
2022-08-27T13:10:10.603Z,43.22
2022-08-27T13:13:40.704Z,42.67
2022-08-27T13:16:57.913Z,42.94
2022-08-27T13:20:33.038Z,43.05
2022-08-27T13:23:47.924Z,41.98
2022-08-27T13:27:03.535Z,42.16
2022-08-27T13:30:35.191Z,42.04
2022-08-27T13:33:51.664Z,41.60
2022-08-27T13:37:18.929Z,41.85
2022-08-27T13:41:01.705Z,42.19
2022-08-27T13:44:20.698Z,42.26
2022-08-27T13:48:09.045Z,42.30
2022-08-27T13:51:24.442Z,42.46
2022-08-27T13:54:20.675Z,42.93
2022-08-27T13:57:47.965Z,42.99
2022-08-27T14:01:09.690Z,43.22
2022-08-27T14:04:09.502Z,43.35
2022-08-27T14:07:19.738Z,43.18
2022-08-27T14:10:51.627Z,42.90
2022-08-27T14:14:11.875Z,43.29
2022-08-27T14:17:36.919Z,43.63
2022-08-27T14:21:00.791Z,43.73
2022-08-27T14:24:39.647Z,43.66
2022-08-27T14:28:00.618Z,43.78
2022-08-27T14:31:24.710Z,43.88
2022-08-27T14:34:45.614Z,44.20
2022-08-27T14:38:07.682Z,43.68
2022-08-27T14:41:54.673Z,44.25
2022-08-27T14:45:25.013Z,44.34
2022-08-27T14:48:32.946Z,44.58
2022-08-27T14:51:27.068Z,44.71
2022-08-27T14:54:00.465Z,44.65
2022-08-27T14:56:31.479Z,44.71
2022-08-27T14:59:02.368Z,44.92
2022-08-27T15:01:37.612Z,44.89
2022-08-27T15:04:09.404Z,45.06
2022-08-27T15:16:20.623Z,44.98
2022-08-27T15:19:59.036Z,45.57
2022-08-27T15:22:56.733Z,45.59
2022-08-27T15:26:13.034Z,45.64
2022-08-27T15:28:51.559Z,45.67
2022-08-27T15:31:49.650Z,45.70
2022-08-27T15:48:38.240Z,46.54
2022-08-27T15:51:30.816Z,46.65
2022-08-27T15:54:02.516Z,46.75
2022-08-27T15:56:45.561Z,46.75
2022-08-27T16:00:01.661Z,46.86
2022-08-27T16:03:15.584Z,46.95
2022-08-27T16:06:39.167Z,47.17
2022-08-27T16:09:55.044Z,47.52
2022-08-27T16:13:12.328Z,47.38
2022-08-27T16:16:28.415Z,47.29
2022-08-27T16:19:42.586Z,47.36
2022-08-27T16:22:59.381Z,47.64
2022-08-27T16:26:13.428Z,47.89
2022-08-27T16:29:35.675Z,48.14
2022-08-27T16:32:52.722Z,48.17
2022-08-27T17:03:23.082Z,48.65
2022-08-27T17:07:59.178Z,48.55
2022-08-27T17:11:08.306Z,48.42
2022-08-27T17:14:27.420Z,48.50
2022-08-27T17:17:52.417Z,48.57
2022-08-27T17:21:10.329Z,48.99
2022-08-27T17:24:34.377Z,48.75
2022-08-27T17:27:41.552Z,49.02
2022-08-27T17:31:01.737Z,49.01
2022-08-27T17:34:18.838Z,49.13
2022-08-27T17:37:49.040Z,49.08
2022-08-27T17:41:16.677Z,49.13
2022-08-27T17:44:49.983Z,48.97
2022-08-27T17:51:53.860Z,48.96
2022-08-27T17:55:14.647Z,48.89
2022-08-27T17:59:01.722Z,48.87
2022-08-27T18:02:49.002Z,48.96
2022-08-27T18:07:12.246Z,49.00
2022-08-27T18:14:13.131Z,49.26
2022-08-27T18:18:09.131Z,49.13
2022-08-27T18:22:03.616Z,49.34
2022-08-27T18:25:36.407Z,49.35
2022-08-27T18:29:13.511Z,49.44
2022-08-27T18:32:39.677Z,49.66
2022-08-27T18:36:17.328Z,49.49
2022-08-27T18:39:43.077Z,49.45
2022-08-27T18:43:32.671Z,49.74
2022-08-27T18:47:13.850Z,49.85
2022-08-27T18:50:57.576Z,50.01
2022-08-27T18:58:12.881Z,50.18
2022-08-27T19:01:58.014Z,50.28
2022-08-27T19:17:54.423Z,50.53
2022-08-27T19:25:14.497Z,50.69
2022-08-27T19:28:51.201Z,50.57
2022-08-27T19:32:17.504Z,50.65
2022-08-27T19:38:59.549Z,50.71
2022-08-27T20:05:56.538Z,51.29
2022-08-27T20:09:19.613Z,51.40
2022-08-27T20:12:48.049Z,51.39
2022-08-27T20:16:13.600Z,51.49
2022-08-27T20:19:32.369Z,51.46
2022-08-27T20:22:49.536Z,51.54
2022-08-27T20:26:09.412Z,51.69
2022-08-27T20:32:42.677Z,51.78
2022-08-27T20:44:01.525Z,52.02
2022-08-27T20:50:55.034Z,52.07
2022-08-27T20:54:48.928Z,52.29
2022-08-27T21:01:29.358Z,52.38
2022-08-27T21:04:48.517Z,52.44
2022-08-27T21:08:04.625Z,52.66
2022-08-27T21:11:01.330Z,52.63
2022-08-27T21:14:18.337Z,52.73
2022-08-27T21:17:46.420Z,52.60
2022-08-27T21:21:05.713Z,52.71
2022-08-27T21:24:24.294Z,52.76
2022-08-27T21:27:51.486Z,53.01
2022-08-27T21:31:17.649Z,52.97
2022-08-27T21:34:40.206Z,53.10
